sensor_id;sensor_type;location;lat;lon;timestamp;pressure;altitude;pressure_sealevel;temperature;humidity
50394;BME280;36308;46.312;25.288;2024-02-16T00:00:08;96869.59;;;-0.71;65.70
50394;BME280;36308;46.312;25.288;2024-02-16T00:02:33;96875.06;;;-0.72;65.65
50394;BME280;36308;46.312;25.288;2024-02-16T00:04:59;96879.00;;;-0.76;65.56
50394;BME280;36308;46.312;25.288;2024-02-16T00:07:25;96861.84;;;-0.89;66.16
50394;BME280;36308;46.312;25.288;2024-02-16T00:09:50;96862.50;;;-0.87;65.87
50394;BME280;36308;46.312;25.288;2024-02-16T00:12:16;96874.38;;;-0.83;66.21
50394;BME280;36308;46.312;25.288;2024-02-16T00:14:42;96872.72;;;-0.84;66.14
50394;BME280;36308;46.312;25.288;2024-02-16T00:17:08;96876.38;;;-0.85;66.10
50394;BME280;36308;46.312;25.288;2024-02-16T00:19:35;96879.16;;;-0.86;65.85
50394;BME280;36308;46.312;25.288;2024-02-16T00:22:01;96858.19;;;-1.04;66.12
50394;BME280;36308;46.312;25.288;2024-02-16T00:24:27;96879.66;;;-0.91;66.22
50394;BME280;36308;46.312;25.288;2024-02-16T00:26:52;96885.91;;;-0.92;66.26
50394;BME280;36308;46.312;25.288;2024-02-16T00:29:18;96875.03;;;-0.97;66.04
50394;BME280;36308;46.312;25.288;2024-02-16T00:31:44;96876.03;;;-0.98;66.21
50394;BME280;36308;46.312;25.288;2024-02-16T00:34:10;96866.13;;;-1.04;66.47
50394;BME280;36308;46.312;25.288;2024-02-16T00:36:36;96868.75;;;-1.04;66.39
50394;BME280;36308;46.312;25.288;2024-02-16T00:39:01;96838.06;;;-1.22;66.68
50394;BME280;36308;46.312;25.288;2024-02-16T00:41:28;96848.28;;;-1.18;66.80
50394;BME280;36308;46.312;25.288;2024-02-16T00:43:54;96867.28;;;-1.07;66.74
50394;BME280;36308;46.312;25.288;2024-02-16T00:46:21;96867.44;;;-1.08;66.37
50394;BME280;36308;46.312;25.288;2024-02-16T00:48:54;96869.25;;;-1.09;66.57
50394;BME280;36308;46.312;25.288;2024-02-16T00:51:20;96837.41;;;-1.32;66.68
50394;BME280;36308;46.312;25.288;2024-02-16T00:53:46;96835.78;;;-1.33;66.89
50394;BME280;36308;46.312;25.288;2024-02-16T00:56:13;96867.41;;;-1.16;67.05
50394;BME280;36308;46.312;25.288;2024-02-16T00:58:41;96868.44;;;-1.17;66.45
50394;BME280;36308;46.312;25.288;2024-02-16T01:01:08;96868.44;;;-1.17;66.96
50394;BME280;36308;46.312;25.288;2024-02-16T01:03:39;96833.13;;;-1.41;66.50
50394;BME280;36308;46.312;25.288;2024-02-16T01:06:05;96859.03;;;-1.28;66.53
50394;BME280;36308;46.312;25.288;2024-02-16T01:08:31;96863.44;;;-1.29;66.75
50394;BME280;36308;46.312;25.288;2024-02-16T01:10:57;96851.25;;;-1.38;66.73
50394;BME280;36308;46.312;25.288;2024-02-16T01:13:22;96845.66;;;-1.43;66.85
50394;BME280;36308;46.312;25.288;2024-02-16T01:15:48;96861.16;;;-1.32;67.19
50394;BME280;36308;46.312;25.288;2024-02-16T01:18:13;96834.41;;;-1.53;66.94
50394;BME280;36308;46.312;25.288;2024-02-16T01:20:39;96856.38;;;-1.36;67.04
50394;BME280;36308;46.312;25.288;2024-02-16T01:23:04;96856.53;;;-1.38;66.94
50394;BME280;36308;46.312;25.288;2024-02-16T01:25:31;96859.16;;;-1.38;67.03
50394;BME280;36308;46.312;25.288;2024-02-16T01:27:57;96824.81;;;-1.63;67.22
50394;BME280;36308;46.312;25.288;2024-02-16T01:30:23;96839.19;;;-1.57;67.08
50394;BME280;36308;46.312;25.288;2024-02-16T01:32:48;96859.81;;;-1.44;67.37
50394;BME280;36308;46.312;25.288;2024-02-16T01:35:14;96846.28;;;-1.49;67.04
50394;BME280;36308;46.312;25.288;2024-02-16T01:37:40;96836.72;;;-1.50;67.54
50394;BME280;36308;46.312;25.288;2024-02-16T01:40:08;96856.84;;;-1.49;67.29
50394;BME280;36308;46.312;25.288;2024-02-16T01:42:39;96828.09;;;-1.69;67.01
50394;BME280;36308;46.312;25.288;2024-02-16T01:45:05;96849.91;;;-1.50;67.35
50394;BME280;36308;46.312;25.288;2024-02-16T01:47:31;96852.53;;;-1.50;67.50
50394;BME280;36308;46.312;25.288;2024-02-16T01:49:56;96840.00;;;-1.56;67.48
50394;BME280;36308;46.312;25.288;2024-02-16T01:52:22;96844.13;;;-1.54;67.27
50394;BME280;36308;46.312;25.288;2024-02-16T01:54:47;96814.91;;;-1.77;67.00
50394;BME280;36308;46.312;25.288;2024-02-16T01:57:13;96848.72;;;-1.56;66.95
50394;BME280;36308;46.312;25.288;2024-02-16T01:59:40;96841.81;;;-1.57;67.11
50394;BME280;36308;46.312;25.288;2024-02-16T02:02:05;96802.06;;;-1.80;67.33
50394;BME280;36308;46.312;25.288;2024-02-16T02:04:32;96843.13;;;-1.61;67.24
50394;BME280;36308;46.312;25.288;2024-02-16T02:06:57;96834.03;;;-1.67;67.47
50394;BME280;36308;46.312;25.288;2024-02-16T02:09:23;96839.31;;;-1.67;67.61
50394;BME280;36308;46.312;25.288;2024-02-16T02:11:48;96809.94;;;-1.88;67.39
50394;BME280;36308;46.312;25.288;2024-02-16T02:14:14;96812.44;;;-1.87;67.50
50394;BME280;36308;46.312;25.288;2024-02-16T02:16:39;96834.00;;;-1.75;67.54
50394;BME280;36308;46.312;25.288;2024-02-16T02:19:05;96838.31;;;-1.74;67.68
50394;BME280;36308;46.312;25.288;2024-02-16T02:21:30;96840.28;;;-1.76;67.92
50394;BME280;36308;46.312;25.288;2024-02-16T02:23:56;96844.75;;;-1.76;67.26
50394;BME280;36308;46.312;25.288;2024-02-16T02:26:22;96837.28;;;-1.81;67.20
50394;BME280;36308;46.312;25.288;2024-02-16T02:28:47;96840.94;;;-1.82;67.66
50394;BME280;36308;46.312;25.288;2024-02-16T02:31:13;96840.94;;;-1.82;67.39
50394;BME280;36308;46.312;25.288;2024-02-16T02:33:38;96838.59;;;-1.85;67.74
50394;BME280;36308;46.312;25.288;2024-02-16T02:36:04;96833.00;;;-1.90;67.76
50394;BME280;36308;46.312;25.288;2024-02-16T02:38:30;96821.09;;;-2.03;67.74
50394;BME280;36308;46.312;25.288;2024-02-16T02:40:56;96834.81;;;-1.91;67.54
50394;BME280;36308;46.312;25.288;2024-02-16T02:43:22;96838.78;;;-1.87;67.58
50394;BME280;36308;46.312;25.288;2024-02-16T02:45:48;96845.16;;;-1.89;67.48
50394;BME280;36308;46.312;25.288;2024-02-16T02:48:14;96840.25;;;-1.92;67.79
50394;BME280;36308;46.312;25.288;2024-02-16T02:50:39;96841.38;;;-1.95;67.29
50394;BME280;36308;46.312;25.288;2024-02-16T02:53:05;96801.94;;;-2.13;67.97
50394;BME280;36308;46.312;25.288;2024-02-16T02:55:31;96844.16;;;-1.96;68.01
50394;BME280;36308;46.312;25.288;2024-02-16T02:57:57;96840.53;;;-1.95;67.76
50394;BME280;36308;46.312;25.288;2024-02-16T03:00:23;96842.84;;;-2.00;67.72
50394;BME280;36308;46.312;25.288;2024-02-16T03:02:49;96844.47;;;-1.99;68.10
50394;BME280;36308;46.312;25.288;2024-02-16T03:05:15;96848.13;;;-2.00;67.94
50394;BME280;36308;46.312;25.288;2024-02-16T03:07:40;96846.44;;;-2.01;67.70
50394;BME280;36308;46.312;25.288;2024-02-16T03:10:06;96837.88;;;-2.04;67.82
50394;BME280;36308;46.312;25.288;2024-02-16T03:12:34;96842.31;;;-2.04;67.96
50394;BME280;36308;46.312;25.288;2024-02-16T03:15:00;96848.75;;;-2.07;67.97
50394;BME280;36308;46.312;25.288;2024-02-16T03:17:26;96851.38;;;-2.07;67.86
50394;BME280;36308;46.312;25.288;2024-02-16T03:19:52;96837.84;;;-2.12;68.12
50394;BME280;36308;46.312;25.288;2024-02-16T03:22:18;96849.72;;;-2.08;67.75
50394;BME280;36308;46.312;25.288;2024-02-16T03:24:43;96845.25;;;-2.15;67.97
50394;BME280;36308;46.312;25.288;2024-02-16T03:27:10;96795.09;;;-2.40;68.04
50394;BME280;36308;46.312;25.288;2024-02-16T03:29:36;96818.00;;;-2.32;68.17
50394;BME280;36308;46.312;25.288;2024-02-16T03:32:02;96845.41;;;-2.17;67.98
50394;BME280;36308;46.312;25.288;2024-02-16T03:34:27;96844.72;;;-2.19;67.84
50394;BME280;36308;46.312;25.288;2024-02-16T03:36:53;96845.06;;;-2.22;67.74
50394;BME280;36308;46.312;25.288;2024-02-16T03:39:19;96842.44;;;-2.22;67.74
50394;BME280;36308;46.312;25.288;2024-02-16T03:41:45;96840.09;;;-2.25;67.90
50394;BME280;36308;46.312;25.288;2024-02-16T03:44:14;96806.25;;;-2.46;67.96
50394;BME280;36308;46.312;25.288;2024-02-16T03:46:41;96841.09;;;-2.26;67.91
50394;BME280;36308;46.312;25.288;2024-02-16T03:49:07;96840.41;;;-2.28;68.21
50394;BME280;36308;46.312;25.288;2024-02-16T03:51:33;96837.94;;;-2.30;67.96
50394;BME280;36308;46.312;25.288;2024-02-16T03:53:58;96781.81;;;-2.65;68.08
50394;BME280;36308;46.312;25.288;2024-02-16T03:56:24;96835.78;;;-2.34;68.12
50394;BME280;36308;46.312;25.288;2024-02-16T03:58:50;96838.56;;;-2.36;68.23
50394;BME280;36308;46.312;25.288;2024-02-16T04:01:15;96836.91;;;-2.37;68.45
50394;BME280;36308;46.312;25.288;2024-02-16T04:03:41;96837.06;;;-2.38;67.88
50394;BME280;36308;46.312;25.288;2024-02-16T04:06:07;96838.88;;;-2.39;68.30
50394;BME280;36308;46.312;25.288;2024-02-16T04:08:33;96839.34;;;-2.44;68.36
50394;BME280;36308;46.312;25.288;2024-02-16T04:10:59;96842.78;;;-2.43;68.06
50394;BME280;36308;46.312;25.288;2024-02-16T04:13:25;96837.53;;;-2.43;68.05
50394;BME280;36308;46.312;25.288;2024-02-16T04:15:50;96840.34;;;-2.45;68.33
50394;BME280;36308;46.312;25.288;2024-02-16T04:18:16;96789.75;;;-2.82;68.08
50394;BME280;36308;46.312;25.288;2024-02-16T04:20:41;96849.34;;;-2.47;68.43
50394;BME280;36308;46.312;25.288;2024-02-16T04:23:07;96817.84;;;-2.65;68.53
50394;BME280;36308;46.312;25.288;2024-02-16T04:25:32;96833.34;;;-2.54;68.50
50394;BME280;36308;46.312;25.288;2024-02-16T04:27:57;96807.78;;;-2.70;68.35
50394;BME280;36308;46.312;25.288;2024-02-16T04:30:23;96846.38;;;-2.52;68.55
50394;BME280;36308;46.312;25.288;2024-02-16T04:32:48;96837.94;;;-2.56;68.78
50394;BME280;36308;46.312;25.288;2024-02-16T04:35:14;96845.69;;;-2.54;68.60
50394;BME280;36308;46.312;25.288;2024-02-16T04:37:40;96844.22;;;-2.57;68.77
50394;BME280;36308;46.312;25.288;2024-02-16T04:40:07;96822.06;;;-2.72;68.72
50394;BME280;36308;46.312;25.288;2024-02-16T04:42:33;96842.53;;;-2.58;68.78
50394;BME280;36308;46.312;25.288;2024-02-16T04:44:59;96849.09;;;-2.62;68.85
50394;BME280;36308;46.312;25.288;2024-02-16T04:47:27;96812.25;;;-2.88;68.90
50394;BME280;36308;46.312;25.288;2024-02-16T04:49:53;96836.56;;;-2.68;68.77
50394;BME280;36308;46.312;25.288;2024-02-16T04:52:18;96844.78;;;-2.71;68.89
50394;BME280;36308;46.312;25.288;2024-02-16T04:54:44;96847.56;;;-2.73;68.77
50394;BME280;36308;46.312;25.288;2024-02-16T04:57:09;96848.69;;;-2.75;68.77
50394;BME280;36308;46.312;25.288;2024-02-16T04:59:35;96845.06;;;-2.74;69.04
50394;BME280;36308;46.312;25.288;2024-02-16T05:02:00;96844.25;;;-2.75;69.23
50394;BME280;36308;46.312;25.288;2024-02-16T05:04:26;96850.34;;;-2.74;69.28
50394;BME280;36308;46.312;25.288;2024-02-16T05:06:51;96845.25;;;-2.76;69.07
50394;BME280;36308;46.312;25.288;2024-02-16T05:09:22;96842.75;;;-2.77;69.10
50394;BME280;36308;46.312;25.288;2024-02-16T05:11:50;96850.66;;;-2.77;69.10
50394;BME280;36308;46.312;25.288;2024-02-16T05:14:16;96852.28;;;-2.76;69.29
50394;BME280;36308;46.312;25.288;2024-02-16T05:16:45;96851.13;;;-2.82;69.14
50394;BME280;36308;46.312;25.288;2024-02-16T05:19:11;96838.06;;;-2.92;68.99
50394;BME280;36308;46.312;25.288;2024-02-16T05:21:36;96854.88;;;-2.85;68.83
50394;BME280;36308;46.312;25.288;2024-02-16T05:24:02;96821.47;;;-3.10;68.87
50394;BME280;36308;46.312;25.288;2024-02-16T05:26:28;96867.34;;;-2.87;69.28
50394;BME280;36308;46.312;25.288;2024-02-16T05:28:53;96867.34;;;-2.87;69.26
50394;BME280;36308;46.312;25.288;2024-02-16T05:31:19;96871.66;;;-2.86;69.14
50394;BME280;36308;46.312;25.288;2024-02-16T05:33:47;96870.66;;;-2.85;69.96
50394;BME280;36308;46.312;25.288;2024-02-16T05:36:16;96875.25;;;-2.87;69.73
50394;BME280;36308;46.312;25.288;2024-02-16T05:38:43;96871.50;;;-2.84;69.68
50394;BME280;36308;46.312;25.288;2024-02-16T05:41:09;96868.50;;;-2.89;69.97
50394;BME280;36308;46.312;25.288;2024-02-16T05:43:36;96884.66;;;-2.84;70.03
50394;BME280;36308;46.312;25.288;2024-02-16T05:46:04;96875.41;;;-2.88;70.18
50394;BME280;36308;46.312;25.288;2024-02-16T05:48:34;96890.59;;;-2.82;70.46
50394;BME280;36308;46.312;25.288;2024-02-16T05:51:05;96890.44;;;-2.80;70.28
50394;BME280;36308;46.312;25.288;2024-02-16T05:53:31;96886.31;;;-2.83;70.49
50394;BME280;36308;46.312;25.288;2024-02-16T05:55:57;96895.41;;;-2.77;70.67
50394;BME280;36308;46.312;25.288;2024-02-16T05:58:23;96878.41;;;-2.83;70.44
50394;BME280;36308;46.312;25.288;2024-02-16T06:00:49;96889.13;;;-2.76;70.48
50394;BME280;36308;46.312;25.288;2024-02-16T06:03:15;96889.13;;;-2.76;70.33
50394;BME280;36308;46.312;25.288;2024-02-16T06:05:40;96854.44;;;-2.98;70.14
50394;BME280;36308;46.312;25.288;2024-02-16T06:08:06;96849.47;;;-3.01;70.24
50394;BME280;36308;46.312;25.288;2024-02-16T06:10:32;96890.50;;;-2.72;70.48
50394;BME280;36308;46.312;25.288;2024-02-16T06:12:58;96899.38;;;-2.73;70.43
50394;BME280;36308;46.312;25.288;2024-02-16T06:15:24;96889.13;;;-2.76;70.68
50394;BME280;36308;46.312;25.288;2024-02-16T06:17:50;96908.16;;;-2.65;70.65
50394;BME280;36308;46.312;25.288;2024-02-16T06:20:16;96905.66;;;-2.66;70.54
50394;BME280;36308;46.312;25.288;2024-02-16T06:22:42;96903.41;;;-2.61;70.42
50394;BME280;36308;46.312;25.288;2024-02-16T06:25:08;96903.91;;;-2.57;70.76
50394;BME280;36308;46.312;25.288;2024-02-16T06:27:34;96854.88;;;-2.85;70.86
50394;BME280;36308;46.312;25.288;2024-02-16T06:29:59;96907.47;;;-2.49;71.20
50394;BME280;36308;46.312;25.288;2024-02-16T06:32:25;96906.47;;;-2.48;70.80
50394;BME280;36308;46.312;25.288;2024-02-16T06:34:52;96903.22;;;-2.41;70.97
50394;BME280;36308;46.312;25.288;2024-02-16T06:37:18;96909.81;;;-2.37;71.02
50394;BME280;36308;46.312;25.288;2024-02-16T06:39:43;96912.84;;;-2.32;71.14
50394;BME280;36308;46.312;25.288;2024-02-16T06:42:08;96914.19;;;-2.28;71.14
50394;BME280;36308;46.312;25.288;2024-02-16T06:44:38;96908.59;;;-2.25;71.35
50394;BME280;36308;46.312;25.288;2024-02-16T06:47:04;96879.50;;;-2.41;71.15
50394;BME280;36308;46.312;25.288;2024-02-16T06:49:30;96904.84;;;-2.14;71.42
50394;BME280;36308;46.312;25.288;2024-02-16T06:51:55;96916.94;;;-2.04;71.76
50394;BME280;36308;46.312;25.288;2024-02-16T06:54:21;96916.28;;;-1.97;71.79
50394;BME280;36308;46.312;25.288;2024-02-16T06:56:46;96916.03;;;-1.86;72.18
50394;BME280;36308;46.312;25.288;2024-02-16T06:59:12;96891.28;;;-1.93;71.88
50394;BME280;36308;46.312;25.288;2024-02-16T07:01:38;96915.94;;;-1.68;71.67
50394;BME280;36308;46.312;25.288;2024-02-16T07:04:04;96912.50;;;-1.60;71.98
50394;BME280;36308;46.312;25.288;2024-02-16T07:06:30;96900.50;;;-1.55;71.91
50394;BME280;36308;46.312;25.288;2024-02-16T07:08:55;96913.06;;;-1.40;72.39
50394;BME280;36308;46.312;25.288;2024-02-16T07:11:21;96905.34;;;-1.26;72.38
50394;BME280;36308;46.312;25.288;2024-02-16T07:13:46;96915.59;;;-1.14;72.28
50394;BME280;36308;46.312;25.288;2024-02-16T07:16:12;96909.66;;;-1.00;72.59
50394;BME280;36308;46.312;25.288;2024-02-16T07:18:37;96910.03;;;-0.87;72.74
50394;BME280;36308;46.312;25.288;2024-02-16T07:21:03;96914.31;;;-0.77;72.34
50394;BME280;36308;46.312;25.288;2024-02-16T07:23:29;96911.00;;;-0.63;72.45
50394;BME280;36308;46.312;25.288;2024-02-16T07:26:00;96873.06;;;-0.70;72.68
50394;BME280;36308;46.312;25.288;2024-02-16T07:28:27;96915.47;;;-0.31;72.25
50394;BME280;36308;46.312;25.288;2024-02-16T07:30:53;96887.88;;;-0.28;72.33
50394;BME280;36308;46.312;25.288;2024-02-16T07:33:18;96907.94;;;-0.03;71.72
50394;BME280;36308;46.312;25.288;2024-02-16T07:35:44;96888.09;;;0.02;71.94
50394;BME280;36308;46.312;25.288;2024-02-16T07:38:10;96892.53;;;0.17;71.37
50394;BME280;36308;46.312;25.288;2024-02-16T07:40:36;96894.63;;;0.30;71.50
50394;BME280;36308;46.312;25.288;2024-02-16T07:43:02;96881.03;;;0.42;70.87
50394;BME280;36308;46.312;25.288;2024-02-16T07:45:28;96925.13;;;0.80;71.46
50394;BME280;36308;46.312;25.288;2024-02-16T07:47:54;96878.53;;;0.71;70.85
50394;BME280;36308;46.312;25.288;2024-02-16T07:50:21;96914.72;;;1.10;70.33
50394;BME280;36308;46.312;25.288;2024-02-16T07:52:48;96919.88;;;1.27;70.00
50394;BME280;36308;46.312;25.288;2024-02-16T07:55:13;96871.63;;;1.16;70.13
50394;BME280;36308;46.312;25.288;2024-02-16T07:57:41;96902.06;;;1.58;70.25
50394;BME280;36308;46.312;25.288;2024-02-16T08:00:07;96909.50;;;1.78;70.27
50394;BME280;36308;46.312;25.288;2024-02-16T08:02:33;96907.97;;;1.98;69.74
50394;BME280;36308;46.312;25.288;2024-02-16T08:04:59;96913.00;;;2.23;69.30
50394;BME280;36308;46.312;25.288;2024-02-16T08:07:24;96910.00;;;2.41;69.37
50394;BME280;36308;46.312;25.288;2024-02-16T08:09:50;96917.84;;;2.64;69.32
50394;BME280;36308;46.312;25.288;2024-02-16T08:12:15;96919.13;;;2.90;68.46
50394;BME280;36308;46.312;25.288;2024-02-16T08:14:42;96906.50;;;3.13;68.68
50394;BME280;36308;46.312;25.288;2024-02-16T08:17:08;96914.09;;;3.38;68.25
50394;BME280;36308;46.312;25.288;2024-02-16T08:19:37;96915.59;;;3.69;67.61
50394;BME280;36308;46.312;25.288;2024-02-16T08:22:05;96913.16;;;3.95;66.48
50394;BME280;36308;46.312;25.288;2024-02-16T08:24:36;96913.06;;;4.17;66.45
50394;BME280;36308;46.312;25.288;2024-02-16T08:27:03;96874.03;;;4.24;65.99
50394;BME280;36308;46.312;25.288;2024-02-16T08:29:29;96914.81;;;4.73;65.66
50394;BME280;36308;46.312;25.288;2024-02-16T08:31:55;96912.44;;;4.98;64.99
50394;BME280;36308;46.312;25.288;2024-02-16T08:34:21;96903.06;;;5.15;64.79
50394;BME280;36308;46.312;25.288;2024-02-16T08:36:50;96888.53;;;5.38;64.36
50394;BME280;36308;46.312;25.288;2024-02-16T08:39:16;96908.66;;;5.80;63.58
50394;BME280;36308;46.312;25.288;2024-02-16T08:41:42;96873.34;;;5.85;62.63
50394;BME280;36308;46.312;25.288;2024-02-16T08:44:13;96906.97;;;6.33;61.86
50394;BME280;36308;46.312;25.288;2024-02-16T08:46:39;96909.41;;;6.54;61.05
50394;BME280;36308;46.312;25.288;2024-02-16T08:49:05;96907.84;;;6.78;59.96
50394;BME280;36308;46.312;25.288;2024-02-16T08:51:32;96907.56;;;7.00;60.16
50394;BME280;36308;46.312;25.288;2024-02-16T08:53:58;96903.31;;;7.24;59.58
50394;BME280;36308;46.312;25.288;2024-02-16T08:56:23;96898.44;;;7.46;58.78
50394;BME280;36308;46.312;25.288;2024-02-16T08:58:49;96903.81;;;7.71;57.71
50394;BME280;36308;46.312;25.288;2024-02-16T09:01:15;96904.28;;;7.93;57.34
50394;BME280;36308;46.312;25.288;2024-02-16T09:03:42;96906.53;;;8.15;57.55
50394;BME280;36308;46.312;25.288;2024-02-16T09:06:07;96903.63;;;8.41;56.63
50394;BME280;36308;46.312;25.288;2024-02-16T09:08:33;96907.50;;;8.64;56.24
50394;BME280;36308;46.312;25.288;2024-02-16T09:11:03;96886.94;;;8.76;55.64
50394;BME280;36308;46.312;25.288;2024-02-16T09:13:33;96895.25;;;9.05;54.53
50394;BME280;36308;46.312;25.288;2024-02-16T09:15:59;96899.66;;;9.29;54.36
50394;BME280;36308;46.312;25.288;2024-02-16T09:18:26;96893.56;;;9.53;53.61
50394;BME280;36308;46.312;25.288;2024-02-16T09:20:51;96894.28;;;9.71;52.42
50394;BME280;36308;46.312;25.288;2024-02-16T09:23:17;96890.47;;;9.91;52.82
50394;BME280;36308;46.312;25.288;2024-02-16T09:25:42;96895.16;;;10.07;52.08
50394;BME280;36308;46.312;25.288;2024-02-16T09:28:09;96870.16;;;10.07;51.83
50394;BME280;36308;46.312;25.288;2024-02-16T09:30:37;96900.31;;;10.44;51.45
50394;BME280;36308;46.312;25.288;2024-02-16T09:33:02;96883.09;;;10.57;50.74
50394;BME280;36308;46.312;25.288;2024-02-16T09:35:28;96898.88;;;10.77;49.70
50394;BME280;36308;46.312;25.288;2024-02-16T09:37:53;96896.47;;;10.92;48.95
50394;BME280;36308;46.312;25.288;2024-02-16T09:40:19;96890.34;;;11.09;48.32
50394;BME280;36308;46.312;25.288;2024-02-16T09:42:48;96893.31;;;11.24;48.60
50394;BME280;36308;46.312;25.288;2024-02-16T09:45:15;96889.28;;;11.39;47.84
50394;BME280;36308;46.312;25.288;2024-02-16T09:47:45;96895.53;;;11.56;48.31
50394;BME280;36308;46.312;25.288;2024-02-16T09:50:12;96883.94;;;11.72;46.33
50394;BME280;36308;46.312;25.288;2024-02-16T09:52:38;96891.13;;;11.84;45.49
50394;BME280;36308;46.312;25.288;2024-02-16T09:55:05;96856.03;;;11.79;45.20
50394;BME280;36308;46.312;25.288;2024-02-16T09:57:32;96850.34;;;11.92;45.37
50394;BME280;36308;46.312;25.288;2024-02-16T09:59:58;96848.38;;;12.04;44.84
50394;BME280;36308;46.312;25.288;2024-02-16T10:02:24;96875.22;;;12.33;44.45
50394;BME280;36308;46.312;25.288;2024-02-16T10:04:50;96854.44;;;12.33;44.27
50394;BME280;36308;46.312;25.288;2024-02-16T10:07:15;96849.44;;;12.42;43.90
50394;BME280;36308;46.312;25.288;2024-02-16T10:09:41;96876.81;;;12.73;42.87
50394;BME280;36308;46.312;25.288;2024-02-16T10:12:07;96866.06;;;12.78;42.71
50394;BME280;36308;46.312;25.288;2024-02-16T10:14:33;96867.59;;;12.91;42.30
50394;BME280;36308;46.312;25.288;2024-02-16T10:17:03;96869.91;;;13.04;41.94
50394;BME280;36308;46.312;25.288;2024-02-16T10:19:29;96868.19;;;13.20;41.80
50394;BME280;36308;46.312;25.288;2024-02-16T10:22:11;96865.09;;;13.33;40.96
50394;BME280;36308;46.312;25.288;2024-02-16T10:24:38;96861.47;;;13.45;41.26
50394;BME280;36308;46.312;25.288;2024-02-16T10:27:16;96857.22;;;13.54;41.69
50394;BME280;36308;46.312;25.288;2024-02-16T10:29:44;96854.06;;;13.67;42.24
50394;BME280;36308;46.312;25.288;2024-02-16T10:32:19;96823.53;;;13.67;42.40
50394;BME280;36308;46.312;25.288;2024-02-16T10:34:47;96848.63;;;13.94;42.11
50394;BME280;36308;46.312;25.288;2024-02-16T10:37:15;96843.59;;;14.08;42.25
50394;BME280;36308;46.312;25.288;2024-02-16T10:39:42;96822.75;;;14.09;41.80
50394;BME280;36308;46.312;25.288;2024-02-16T10:42:10;96837.25;;;14.35;41.49
50394;BME280;36308;46.312;25.288;2024-02-16T10:44:37;96813.16;;;14.33;41.42
50394;BME280;36308;46.312;25.288;2024-02-16T10:47:03;96818.13;;;14.47;42.06
50394;BME280;36308;46.312;25.288;2024-02-16T10:49:30;96821.22;;;14.66;40.19
50394;BME280;36308;46.312;25.288;2024-02-16T10:51:56;96825.88;;;14.75;40.50
50394;BME280;36308;46.312;25.288;2024-02-16T10:54:28;96832.94;;;14.87;40.41
50394;BME280;36308;46.312;25.288;2024-02-16T10:56:54;96827.25;;;14.93;39.73
50394;BME280;36308;46.312;25.288;2024-02-16T10:59:20;96828.34;;;14.98;39.74
50394;BME280;36308;46.312;25.288;2024-02-16T11:01:46;96815.38;;;15.00;39.03
50394;BME280;36308;46.312;25.288;2024-02-16T11:04:16;96819.72;;;15.06;39.58
50394;BME280;36308;46.312;25.288;2024-02-16T11:06:49;96814.31;;;15.16;39.66
50394;BME280;36308;46.312;25.288;2024-02-16T11:09:27;96806.22;;;15.26;38.80
50394;BME280;36308;46.312;25.288;2024-02-16T11:11:54;96802.44;;;15.32;38.80
50394;BME280;36308;46.312;25.288;2024-02-16T11:14:21;96798.09;;;15.36;38.94
50394;BME280;36308;46.312;25.288;2024-02-16T11:16:48;96806.25;;;15.47;39.07
50394;BME280;36308;46.312;25.288;2024-02-16T11:19:14;96781.84;;;15.42;38.56
50394;BME280;36308;46.312;25.288;2024-02-16T11:21:58;96799.22;;;15.61;38.88
50394;BME280;36308;46.312;25.288;2024-02-16T11:24:37;96792.97;;;15.71;38.68
50394;BME280;36308;46.312;25.288;2024-02-16T11:27:04;96792.72;;;15.78;37.77
50394;BME280;36308;46.312;25.288;2024-02-16T11:29:34;96800.56;;;15.79;37.38
50394;BME280;36308;46.312;25.288;2024-02-16T11:32:02;96796.00;;;15.80;36.72
50394;BME280;36308;46.312;25.288;2024-02-16T11:34:28;96790.03;;;15.78;37.49
50394;BME280;36308;46.312;25.288;2024-02-16T11:36:58;96785.94;;;15.80;37.44
50394;BME280;36308;46.312;25.288;2024-02-16T11:39:24;96775.09;;;15.80;37.71
50394;BME280;36308;46.312;25.288;2024-02-16T11:42:11;96775.38;;;15.84;37.70
50394;BME280;36308;46.312;25.288;2024-02-16T11:44:38;96787.28;;;15.98;37.78
50394;BME280;36308;46.312;25.288;2024-02-16T11:47:08;96785.91;;;16.06;37.38
50394;BME280;36308;46.312;25.288;2024-02-16T11:49:40;96783.47;;;16.09;37.21
50394;BME280;36308;46.312;25.288;2024-02-16T11:52:07;96779.13;;;16.13;37.77
50394;BME280;36308;46.312;25.288;2024-02-16T11:54:33;96769.59;;;16.16;37.52
50394;BME280;36308;46.312;25.288;2024-02-16T11:56:59;96778.00;;;16.30;37.52
50394;BME280;36308;46.312;25.288;2024-02-16T11:59:24;96775.25;;;16.35;36.96
50394;BME280;36308;46.312;25.288;2024-02-16T12:01:58;96768.22;;;16.34;36.79
50394;BME280;36308;46.312;25.288;2024-02-16T12:07:00;96773.03;;;16.47;36.91
50394;BME280;36308;46.312;25.288;2024-02-16T12:09:26;96774.09;;;16.56;37.33
50394;BME280;36308;46.312;25.288;2024-02-16T12:11:53;96775.13;;;16.66;37.10
50394;BME280;36308;46.312;25.288;2024-02-16T12:14:21;96772.94;;;16.73;37.30
50394;BME280;36308;46.312;25.288;2024-02-16T12:16:48;96771.56;;;16.81;36.83
50394;BME280;36308;46.312;25.288;2024-02-16T12:19:15;96751.19;;;16.78;36.43
50394;BME280;36308;46.312;25.288;2024-02-16T12:21:41;96762.03;;;16.88;35.58
50394;BME280;36308;46.312;25.288;2024-02-16T12:24:06;96762.03;;;16.88;35.56
50394;BME280;36308;46.312;25.288;2024-02-16T12:26:32;96768.53;;;16.92;35.48
50394;BME280;36308;46.312;25.288;2024-02-16T12:28:58;96767.44;;;16.93;34.96
50394;BME280;36308;46.312;25.288;2024-02-16T12:31:24;96764.47;;;16.90;35.05
50394;BME280;36308;46.312;25.288;2024-02-16T12:33:51;96761.47;;;16.91;35.44
50394;BME280;36308;46.312;25.288;2024-02-16T12:36:17;96763.34;;;16.96;35.41
50394;BME280;36308;46.312;25.288;2024-02-16T12:38:42;96758.72;;;17.02;35.72
50394;BME280;36308;46.312;25.288;2024-02-16T12:41:08;96754.84;;;17.08;35.68
50394;BME280;36308;46.312;25.288;2024-02-16T12:43:34;96744.22;;;17.11;35.57
50394;BME280;36308;46.312;25.288;2024-02-16T12:45:59;96751.78;;;17.20;35.22
50394;BME280;36308;46.312;25.288;2024-02-16T12:48:27;96750.97;;;17.19;34.88